Millardsville, Pennsylvania
Current Conditions -  °F | °C
As of 8:58 AM on Saturday 22 Nov 2014 (Local Time) from KMUI Reporting Station
Clear Clear  
Wind Chill: 22°   Ceiling: Unl
Heat Index: 22°   Visibility: 10mi
Dew Point: 12°   Wind: 1mph
Humidity: 66%   Direction: 200°SSW
Pressure: 30.47"   Gusts: NA
Location:  40.3869°N, 76.3173°W
Report Text: KMUI 221358Z AUTO 20001KT 10SM CLR M06/M11 A3047 RMK AO2 SLP329 T10571111 $
Loading
Personal Weather Stations






























Interactive Weather Map New forecast layout! Learn more

10-Day Weather Forecast

Advertisements
Track Severe Weather on mobile